sensor_id;sensor_type;location;lat;lon;timestamp;temperature;humidity
49132;DHT22;35149;51.196;6.204;2023-06-01T00:00:43;20.80;49.40
49132;DHT22;35149;51.196;6.204;2023-06-01T00:03:12;20.70;49.50
49132;DHT22;35149;51.196;6.204;2023-06-01T00:05:53;20.60;49.50
49132;DHT22;35149;51.196;6.204;2023-06-01T00:08:25;20.60;49.60
49132;DHT22;35149;51.196;6.204;2023-06-01T00:10:57;20.60;50.10
49132;DHT22;35149;51.196;6.204;2023-06-01T00:13:24;20.50;49.90
49132;DHT22;35149;51.196;6.204;2023-06-01T00:15:57;20.50;50.00
49132;DHT22;35149;51.196;6.204;2023-06-01T00:18:24;20.40;50.10
49132;DHT22;35149;51.196;6.204;2023-06-01T00:20:58;20.30;50.10
49132;DHT22;35149;51.196;6.204;2023-06-01T00:23:30;20.30;50.30
49132;DHT22;35149;51.196;6.204;2023-06-01T00:25:57;20.30;50.30
49132;DHT22;35149;51.196;6.204;2023-06-01T00:28:29;20.20;50.40
49132;DHT22;35149;51.196;6.204;2023-06-01T00:30:56;20.20;50.40
49132;DHT22;35149;51.196;6.204;2023-06-01T00:33:25;20.10;50.60
49132;DHT22;35149;51.196;6.204;2023-06-01T00:35:54;20.10;51.00
49132;DHT22;35149;51.196;6.204;2023-06-01T00:38:21;20.00;50.80
49132;DHT22;35149;51.196;6.204;2023-06-01T00:40:47;19.90;50.80
49132;DHT22;35149;51.196;6.204;2023-06-01T00:43:18;19.90;51.00
49132;DHT22;35149;51.196;6.204;2023-06-01T00:45:49;19.80;51.10
49132;DHT22;35149;51.196;6.204;2023-06-01T00:48:20;19.80;51.10
49132;DHT22;35149;51.196;6.204;2023-06-01T00:50:51;19.70;51.30
49132;DHT22;35149;51.196;6.204;2023-06-01T00:53:19;19.70;51.40
49132;DHT22;35149;51.196;6.204;2023-06-01T00:55:54;19.60;51.60
49132;DHT22;35149;51.196;6.204;2023-06-01T00:58:23;19.60;51.90
49132;DHT22;35149;51.196;6.204;2023-06-01T01:00:56;19.50;51.60
49132;DHT22;35149;51.196;6.204;2023-06-01T01:03:25;19.50;51.80
49132;DHT22;35149;51.196;6.204;2023-06-01T01:05:57;19.40;51.80
49132;DHT22;35149;51.196;6.204;2023-06-01T01:08:37;19.40;50.30
49132;DHT22;35149;51.196;6.204;2023-06-01T01:11:20;19.30;52.00
49132;DHT22;35149;51.196;6.204;2023-06-01T01:13:58;19.30;52.10
49132;DHT22;35149;51.196;6.204;2023-06-01T01:16:34;19.20;52.50
49132;DHT22;35149;51.196;6.204;2023-06-01T01:19:35;19.10;52.10
49132;DHT22;35149;51.196;6.204;2023-06-01T01:22:25;19.10;52.80
49132;DHT22;35149;51.196;6.204;2023-06-01T01:25:21;18.90;52.70
49132;DHT22;35149;51.196;6.204;2023-06-01T01:30:54;18.80;53.30
49132;DHT22;35149;51.196;6.204;2023-06-01T01:33:23;18.70;52.70
49132;DHT22;35149;51.196;6.204;2023-06-01T01:35:59;18.70;52.70
49132;DHT22;35149;51.196;6.204;2023-06-01T01:38:28;18.70;53.40
49132;DHT22;35149;51.196;6.204;2023-06-01T01:41:01;18.60;52.90
49132;DHT22;35149;51.196;6.204;2023-06-01T01:43:30;18.50;53.00
49132;DHT22;35149;51.196;6.204;2023-06-01T01:46:26;18.50;53.10
49132;DHT22;35149;51.196;6.204;2023-06-01T01:49:20;18.50;53.70
49132;DHT22;35149;51.196;6.204;2023-06-01T01:52:02;18.40;54.50
49132;DHT22;35149;51.196;6.204;2023-06-01T01:54:39;18.40;53.70
49132;DHT22;35149;51.196;6.204;2023-06-01T01:57:08;18.40;53.50
49132;DHT22;35149;51.196;6.204;2023-06-01T01:59:37;18.30;53.50
49132;DHT22;35149;51.196;6.204;2023-06-01T02:02:04;18.30;53.60
49132;DHT22;35149;51.196;6.204;2023-06-01T02:04:31;18.30;53.70
49132;DHT22;35149;51.196;6.204;2023-06-01T02:06:59;18.20;53.80
49132;DHT22;35149;51.196;6.204;2023-06-01T02:09:29;18.20;53.90
49132;DHT22;35149;51.196;6.204;2023-06-01T02:11:56;18.10;53.90
49132;DHT22;35149;51.196;6.204;2023-06-01T02:14:23;18.10;54.00
49132;DHT22;35149;51.196;6.204;2023-06-01T02:16:54;18.00;54.10
49132;DHT22;35149;51.196;6.204;2023-06-01T02:19:22;18.00;54.10
49132;DHT22;35149;51.196;6.204;2023-06-01T02:21:50;17.90;54.20
49132;DHT22;35149;51.196;6.204;2023-06-01T02:24:17;17.90;54.30
49132;DHT22;35149;51.196;6.204;2023-06-01T02:26:47;17.80;54.40
49132;DHT22;35149;51.196;6.204;2023-06-01T02:29:15;17.80;54.60
49132;DHT22;35149;51.196;6.204;2023-06-01T02:31:44;17.80;54.60
49132;DHT22;35149;51.196;6.204;2023-06-01T02:34:11;17.80;54.70
49132;DHT22;35149;51.196;6.204;2023-06-01T02:36:40;17.70;54.70
49132;DHT22;35149;51.196;6.204;2023-06-01T02:39:12;17.70;54.80
49132;DHT22;35149;51.196;6.204;2023-06-01T02:41:41;17.70;55.00
49132;DHT22;35149;51.196;6.204;2023-06-01T02:44:08;17.60;54.80
49132;DHT22;35149;51.196;6.204;2023-06-01T02:46:38;17.60;55.00
49132;DHT22;35149;51.196;6.204;2023-06-01T02:49:06;17.50;55.30
49132;DHT22;35149;51.196;6.204;2023-06-01T02:51:35;17.50;55.10
49132;DHT22;35149;51.196;6.204;2023-06-01T02:54:12;17.40;55.10
49132;DHT22;35149;51.196;6.204;2023-06-01T02:56:44;17.30;55.10
49132;DHT22;35149;51.196;6.204;2023-06-01T02:59:21;17.30;55.50
49132;DHT22;35149;51.196;6.204;2023-06-01T03:02:00;17.20;55.70
49132;DHT22;35149;51.196;6.204;2023-06-01T03:04:30;17.20;55.70
49132;DHT22;35149;51.196;6.204;2023-06-01T03:07:03;17.10;55.50
49132;DHT22;35149;51.196;6.204;2023-06-01T03:09:44;17.10;55.70
49132;DHT22;35149;51.196;6.204;2023-06-01T03:12:29;17.00;55.70
49132;DHT22;35149;51.196;6.204;2023-06-01T03:15:00;16.90;55.70
49132;DHT22;35149;51.196;6.204;2023-06-01T03:17:27;16.80;56.20
49132;DHT22;35149;51.196;6.204;2023-06-01T03:20:04;16.80;56.20
49132;DHT22;35149;51.196;6.204;2023-06-01T03:22:35;16.70;56.20
49132;DHT22;35149;51.196;6.204;2023-06-01T03:25:06;16.70;56.20
49132;DHT22;35149;51.196;6.204;2023-06-01T03:27:35;16.70;56.30
49132;DHT22;35149;51.196;6.204;2023-06-01T03:30:03;16.60;56.40
49132;DHT22;35149;51.196;6.204;2023-06-01T03:32:46;16.60;56.60
49132;DHT22;35149;51.196;6.204;2023-06-01T03:35:13;16.60;56.60
49132;DHT22;35149;51.196;6.204;2023-06-01T03:37:45;16.50;56.90
49132;DHT22;35149;51.196;6.204;2023-06-01T03:40:20;16.50;57.20
49132;DHT22;35149;51.196;6.204;2023-06-01T03:42:57;16.50;57.20
49132;DHT22;35149;51.196;6.204;2023-06-01T03:45:24;16.50;57.60
49132;DHT22;35149;51.196;6.204;2023-06-01T03:47:53;16.60;57.40
49132;DHT22;35149;51.196;6.204;2023-06-01T03:50:26;16.60;57.30
49132;DHT22;35149;51.196;6.204;2023-06-01T03:52:57;16.60;57.50
49132;DHT22;35149;51.196;6.204;2023-06-01T03:55:27;16.60;57.30
49132;DHT22;35149;51.196;6.204;2023-06-01T03:57:54;16.60;57.30
49132;DHT22;35149;51.196;6.204;2023-06-01T04:00:30;16.60;57.30
49132;DHT22;35149;51.196;6.204;2023-06-01T04:03:04;16.50;57.30
49132;DHT22;35149;51.196;6.204;2023-06-01T04:05:34;16.50;57.50
49132;DHT22;35149;51.196;6.204;2023-06-01T04:08:09;16.60;56.30
49132;DHT22;35149;51.196;6.204;2023-06-01T04:10:37;16.60;57.40
49132;DHT22;35149;51.196;6.204;2023-06-01T04:13:10;16.50;57.20
49132;DHT22;35149;51.196;6.204;2023-06-01T04:15:37;16.50;57.40
49132;DHT22;35149;51.196;6.204;2023-06-01T04:18:04;16.50;57.70
49132;DHT22;35149;51.196;6.204;2023-06-01T04:21:00;16.50;57.70
49132;DHT22;35149;51.196;6.204;2023-06-01T04:23:37;16.50;57.40
49132;DHT22;35149;51.196;6.204;2023-06-01T04:26:05;16.60;57.40
49132;DHT22;35149;51.196;6.204;2023-06-01T04:28:32;16.50;57.30
49132;DHT22;35149;51.196;6.204;2023-06-01T04:31:02;16.50;57.30
49132;DHT22;35149;51.196;6.204;2023-06-01T04:33:29;16.50;57.40
49132;DHT22;35149;51.196;6.204;2023-06-01T04:35:58;16.40;57.30
49132;DHT22;35149;51.196;6.204;2023-06-01T04:38:29;16.40;57.50
49132;DHT22;35149;51.196;6.204;2023-06-01T04:40:58;16.30;57.30
49132;DHT22;35149;51.196;6.204;2023-06-01T04:43:27;16.30;57.40
49132;DHT22;35149;51.196;6.204;2023-06-01T04:45:54;16.20;57.50
49132;DHT22;35149;51.196;6.204;2023-06-01T04:48:22;16.10;57.50
49132;DHT22;35149;51.196;6.204;2023-06-01T04:50:58;16.10;57.60
49132;DHT22;35149;51.196;6.204;2023-06-01T04:53:26;16.00;57.60
49132;DHT22;35149;51.196;6.204;2023-06-01T04:55:55;16.00;57.70
49132;DHT22;35149;51.196;6.204;2023-06-01T04:58:24;16.00;57.90
49132;DHT22;35149;51.196;6.204;2023-06-01T05:00:53;15.90;58.30
49132;DHT22;35149;51.196;6.204;2023-06-01T05:03:20;16.00;57.70
49132;DHT22;35149;51.196;6.204;2023-06-01T05:05:49;15.90;57.70
49132;DHT22;35149;51.196;6.204;2023-06-01T05:08:16;15.90;57.90
49132;DHT22;35149;51.196;6.204;2023-06-01T05:10:46;15.90;57.80
49132;DHT22;35149;51.196;6.204;2023-06-01T05:13:13;16.00;58.00
49132;DHT22;35149;51.196;6.204;2023-06-01T05:15:40;16.00;57.70
49132;DHT22;35149;51.196;6.204;2023-06-01T05:18:06;16.00;57.80
49132;DHT22;35149;51.196;6.204;2023-06-01T05:20:33;16.00;57.90
49132;DHT22;35149;51.196;6.204;2023-06-01T05:23:00;16.10;58.10
49132;DHT22;35149;51.196;6.204;2023-06-01T05:25:27;16.10;57.80
49132;DHT22;35149;51.196;6.204;2023-06-01T05:27:53;16.20;57.90
49132;DHT22;35149;51.196;6.204;2023-06-01T05:30:24;16.20;57.50
49132;DHT22;35149;51.196;6.204;2023-06-01T05:32:50;16.40;57.40
49132;DHT22;35149;51.196;6.204;2023-06-01T05:35:20;16.40;57.10
49132;DHT22;35149;51.196;6.204;2023-06-01T05:37:49;16.50;56.80
49132;DHT22;35149;51.196;6.204;2023-06-01T05:40:16;16.50;56.50
49132;DHT22;35149;51.196;6.204;2023-06-01T05:42:43;16.50;56.20
49132;DHT22;35149;51.196;6.204;2023-06-01T05:45:11;16.50;56.20
49132;DHT22;35149;51.196;6.204;2023-06-01T05:47:38;16.60;56.20
49132;DHT22;35149;51.196;6.204;2023-06-01T05:50:05;16.60;56.20
49132;DHT22;35149;51.196;6.204;2023-06-01T05:52:32;16.70;56.30
49132;DHT22;35149;51.196;6.204;2023-06-01T05:55:01;16.70;56.10
49132;DHT22;35149;51.196;6.204;2023-06-01T05:57:28;16.80;55.80
49132;DHT22;35149;51.196;6.204;2023-06-01T05:59:54;16.90;55.70
49132;DHT22;35149;51.196;6.204;2023-06-01T06:02:21;16.90;55.60
49132;DHT22;35149;51.196;6.204;2023-06-01T06:04:48;17.00;55.50
49132;DHT22;35149;51.196;6.204;2023-06-01T06:07:15;17.00;55.40
49132;DHT22;35149;51.196;6.204;2023-06-01T06:09:41;17.10;55.30
49132;DHT22;35149;51.196;6.204;2023-06-01T06:12:08;17.10;55.10
49132;DHT22;35149;51.196;6.204;2023-06-01T06:14:35;17.20;55.00
49132;DHT22;35149;51.196;6.204;2023-06-01T06:17:04;17.20;54.70
49132;DHT22;35149;51.196;6.204;2023-06-01T06:19:31;17.30;54.60
49132;DHT22;35149;51.196;6.204;2023-06-01T06:21:58;17.30;54.40
49132;DHT22;35149;51.196;6.204;2023-06-01T06:24:24;17.30;54.40
49132;DHT22;35149;51.196;6.204;2023-06-01T06:26:53;17.30;54.20
49132;DHT22;35149;51.196;6.204;2023-06-01T06:29:20;17.30;54.10
49132;DHT22;35149;51.196;6.204;2023-06-01T06:31:47;17.30;54.10
49132;DHT22;35149;51.196;6.204;2023-06-01T06:34:15;17.30;54.10
49132;DHT22;35149;51.196;6.204;2023-06-01T06:36:42;17.30;54.00
49132;DHT22;35149;51.196;6.204;2023-06-01T06:39:09;17.20;53.90
49132;DHT22;35149;51.196;6.204;2023-06-01T06:41:36;17.20;54.00
49132;DHT22;35149;51.196;6.204;2023-06-01T06:44:03;17.20;54.00
49132;DHT22;35149;51.196;6.204;2023-06-01T06:46:29;17.10;54.10
49132;DHT22;35149;51.196;6.204;2023-06-01T06:48:56;17.10;54.20
49132;DHT22;35149;51.196;6.204;2023-06-01T06:51:23;16.90;54.40
49132;DHT22;35149;51.196;6.204;2023-06-01T06:53:50;16.90;54.50
49132;DHT22;35149;51.196;6.204;2023-06-01T06:56:17;16.80;54.40
49132;DHT22;35149;51.196;6.204;2023-06-01T06:58:44;16.70;54.50
49132;DHT22;35149;51.196;6.204;2023-06-01T07:01:29;16.60;54.80
49132;DHT22;35149;51.196;6.204;2023-06-01T07:03:56;16.60;54.80
49132;DHT22;35149;51.196;6.204;2023-06-01T07:06:23;16.50;54.90
49132;DHT22;35149;51.196;6.204;2023-06-01T07:08:49;16.50;55.10
49132;DHT22;35149;51.196;6.204;2023-06-01T07:11:16;16.40;55.30
49132;DHT22;35149;51.196;6.204;2023-06-01T07:13:43;16.40;55.50
49132;DHT22;35149;51.196;6.204;2023-06-01T07:16:10;16.40;56.50
49132;DHT22;35149;51.196;6.204;2023-06-01T07:18:37;16.40;56.00
49132;DHT22;35149;51.196;6.204;2023-06-01T07:21:04;16.40;55.90
49132;DHT22;35149;51.196;6.204;2023-06-01T07:23:31;16.50;56.10
49132;DHT22;35149;51.196;6.204;2023-06-01T07:25:57;16.50;56.00
49132;DHT22;35149;51.196;6.204;2023-06-01T07:28:24;16.40;55.90
49132;DHT22;35149;51.196;6.204;2023-06-01T07:30:56;16.40;56.00
49132;DHT22;35149;51.196;6.204;2023-06-01T07:33:23;16.40;55.80
49132;DHT22;35149;51.196;6.204;2023-06-01T07:35:52;16.40;56.00
49132;DHT22;35149;51.196;6.204;2023-06-01T07:38:20;16.40;56.00
49132;DHT22;35149;51.196;6.204;2023-06-01T07:40:46;16.40;55.80
49132;DHT22;35149;51.196;6.204;2023-06-01T07:43:13;16.50;55.90
49132;DHT22;35149;51.196;6.204;2023-06-01T07:45:40;16.50;56.00
49132;DHT22;35149;51.196;6.204;2023-06-01T07:48:07;16.50;56.10
49132;DHT22;35149;51.196;6.204;2023-06-01T07:50:37;16.60;55.90
49132;DHT22;35149;51.196;6.204;2023-06-01T07:53:03;16.60;55.60
49132;DHT22;35149;51.196;6.204;2023-06-01T07:55:30;16.60;55.60
49132;DHT22;35149;51.196;6.204;2023-06-01T07:57:57;16.60;55.40
49132;DHT22;35149;51.196;6.204;2023-06-01T08:00:23;16.60;55.70
49132;DHT22;35149;51.196;6.204;2023-06-01T08:02:50;16.60;55.80
49132;DHT22;35149;51.196;6.204;2023-06-01T08:05:17;16.70;55.90
49132;DHT22;35149;51.196;6.204;2023-06-01T08:07:45;16.70;55.80
49132;DHT22;35149;51.196;6.204;2023-06-01T08:10:15;16.70;55.80
49132;DHT22;35149;51.196;6.204;2023-06-01T08:12:42;16.70;55.80
49132;DHT22;35149;51.196;6.204;2023-06-01T08:15:09;16.80;55.70
49132;DHT22;35149;51.196;6.204;2023-06-01T08:17:39;16.80;55.50
49132;DHT22;35149;51.196;6.204;2023-06-01T08:20:07;16.80;55.40
49132;DHT22;35149;51.196;6.204;2023-06-01T08:22:37;16.90;55.50
49132;DHT22;35149;51.196;6.204;2023-06-01T08:25:05;16.90;55.90
49132;DHT22;35149;51.196;6.204;2023-06-01T08:27:32;17.00;55.20
49132;DHT22;35149;51.196;6.204;2023-06-01T08:30:01;17.00;55.40
49132;DHT22;35149;51.196;6.204;2023-06-01T08:32:28;17.10;55.10
49132;DHT22;35149;51.196;6.204;2023-06-01T08:34:54;17.20;55.40
49132;DHT22;35149;51.196;6.204;2023-06-01T08:37:21;17.20;55.20
49132;DHT22;35149;51.196;6.204;2023-06-01T08:39:48;17.20;55.70
49132;DHT22;35149;51.196;6.204;2023-06-01T08:42:25;17.30;55.30
49132;DHT22;35149;51.196;6.204;2023-06-01T08:44:57;17.30;55.70
49132;DHT22;35149;51.196;6.204;2023-06-01T08:47:24;17.40;55.40
49132;DHT22;35149;51.196;6.204;2023-06-01T08:49:55;17.50;55.50
49132;DHT22;35149;51.196;6.204;2023-06-01T08:52:26;17.50;55.90
49132;DHT22;35149;51.196;6.204;2023-06-01T08:54:59;17.60;55.90
49132;DHT22;35149;51.196;6.204;2023-06-01T08:57:27;17.70;55.60
49132;DHT22;35149;51.196;6.204;2023-06-01T08:59:56;17.70;54.80
49132;DHT22;35149;51.196;6.204;2023-06-01T09:02:23;17.80;54.60
49132;DHT22;35149;51.196;6.204;2023-06-01T09:04:50;17.90;54.40
49132;DHT22;35149;51.196;6.204;2023-06-01T09:07:17;18.00;54.50
49132;DHT22;35149;51.196;6.204;2023-06-01T09:09:44;18.00;54.30
49132;DHT22;35149;51.196;6.204;2023-06-01T09:12:20;18.10;54.30
49132;DHT22;35149;51.196;6.204;2023-06-01T09:14:47;18.10;53.80
49132;DHT22;35149;51.196;6.204;2023-06-01T09:17:15;18.20;53.90
49132;DHT22;35149;51.196;6.204;2023-06-01T09:19:49;18.20;53.90
49132;DHT22;35149;51.196;6.204;2023-06-01T09:22:16;18.30;53.90
49132;DHT22;35149;51.196;6.204;2023-06-01T09:24:58;18.30;54.10
49132;DHT22;35149;51.196;6.204;2023-06-01T09:27:26;18.40;54.00
49132;DHT22;35149;51.196;6.204;2023-06-01T09:29:57;18.40;53.60
49132;DHT22;35149;51.196;6.204;2023-06-01T09:32:26;18.50;53.80
49132;DHT22;35149;51.196;6.204;2023-06-01T09:34:53;18.50;53.90
49132;DHT22;35149;51.196;6.204;2023-06-01T09:37:21;18.60;53.30
49132;DHT22;35149;51.196;6.204;2023-06-01T09:39:48;18.60;53.50
49132;DHT22;35149;51.196;6.204;2023-06-01T09:42:15;18.60;54.10
49132;DHT22;35149;51.196;6.204;2023-06-01T09:44:42;18.70;53.70
49132;DHT22;35149;51.196;6.204;2023-06-01T09:47:11;18.70;53.50
49132;DHT22;35149;51.196;6.204;2023-06-01T09:49:43;18.80;53.20
49132;DHT22;35149;51.196;6.204;2023-06-01T09:52:14;18.80;53.30
49132;DHT22;35149;51.196;6.204;2023-06-01T09:54:51;18.90;53.40
49132;DHT22;35149;51.196;6.204;2023-06-01T09:57:25;18.90;52.90
49132;DHT22;35149;51.196;6.204;2023-06-01T09:59:52;18.90;53.00
49132;DHT22;35149;51.196;6.204;2023-06-01T10:02:21;19.00;52.90
49132;DHT22;35149;51.196;6.204;2023-06-01T10:04:52;19.00;52.80
49132;DHT22;35149;51.196;6.204;2023-06-01T10:07:21;19.10;52.60
49132;DHT22;35149;51.196;6.204;2023-06-01T10:09:58;19.10;52.50
49132;DHT22;35149;51.196;6.204;2023-06-01T10:12:25;19.20;52.00
49132;DHT22;35149;51.196;6.204;2023-06-01T10:14:55;19.20;51.90
49132;DHT22;35149;51.196;6.204;2023-06-01T10:17:22;19.30;51.80
49132;DHT22;35149;51.196;6.204;2023-06-01T10:19:48;19.30;51.60
49132;DHT22;35149;51.196;6.204;2023-06-01T10:22:16;19.40;51.70
49132;DHT22;35149;51.196;6.204;2023-06-01T10:24:43;19.50;52.00
49132;DHT22;35149;51.196;6.204;2023-06-01T10:27:26;19.50;52.00
49132;DHT22;35149;51.196;6.204;2023-06-01T10:29:53;19.60;52.60
49132;DHT22;35149;51.196;6.204;2023-06-01T10:32:46;19.70;52.30
49132;DHT22;35149;51.196;6.204;2023-06-01T10:40:39;20.00;51.40
49132;DHT22;35149;51.196;6.204;2023-06-01T10:43:07;20.00;51.30
49132;DHT22;35149;51.196;6.204;2023-06-01T10:45:38;20.00;51.50
49132;DHT22;35149;51.196;6.204;2023-06-01T10:48:10;20.10;51.50
49132;DHT22;35149;51.196;6.204;2023-06-01T10:50:41;20.20;51.40
49132;DHT22;35149;51.196;6.204;2023-06-01T10:53:37;20.20;51.40
49132;DHT22;35149;51.196;6.204;2023-06-01T10:56:21;20.30;51.00
49132;DHT22;35149;51.196;6.204;2023-06-01T11:01:45;20.40;50.10
49132;DHT22;35149;51.196;6.204;2023-06-01T11:04:13;20.40;49.80
49132;DHT22;35149;51.196;6.204;2023-06-01T11:06:41;20.50;49.90
49132;DHT22;35149;51.196;6.204;2023-06-01T11:09:10;20.50;49.50
49132;DHT22;35149;51.196;6.204;2023-06-01T11:14:23;20.70;48.70
49132;DHT22;35149;51.196;6.204;2023-06-01T11:16:52;20.70;48.80
49132;DHT22;35149;51.196;6.204;2023-06-01T11:19:24;20.80;48.90
49132;DHT22;35149;51.196;6.204;2023-06-01T11:21:58;20.90;49.50
49132;DHT22;35149;51.196;6.204;2023-06-01T11:24:34;20.90;48.10
49132;DHT22;35149;51.196;6.204;2023-06-01T11:27:06;20.90;48.60
49132;DHT22;35149;51.196;6.204;2023-06-01T11:29:33;21.00;47.80
49132;DHT22;35149;51.196;6.204;2023-06-01T11:32:02;21.00;48.00
49132;DHT22;35149;51.196;6.204;2023-06-01T11:34:41;21.10;47.80
49132;DHT22;35149;51.196;6.204;2023-06-01T11:37:14;21.30;47.70
49132;DHT22;35149;51.196;6.204;2023-06-01T11:39:41;21.30;47.70
49132;DHT22;35149;51.196;6.204;2023-06-01T11:42:15;21.50;47.50
49132;DHT22;35149;51.196;6.204;2023-06-01T11:44:54;21.50;47.10
49132;DHT22;35149;51.196;6.204;2023-06-01T11:47:22;21.60;46.70
49132;DHT22;35149;51.196;6.204;2023-06-01T11:49:53;21.70;46.40
49132;DHT22;35149;51.196;6.204;2023-06-01T11:52:20;21.70;46.90
49132;DHT22;35149;51.196;6.204;2023-06-01T11:54:48;21.70;46.80
49132;DHT22;35149;51.196;6.204;2023-06-01T11:57:15;21.80;46.10
49132;DHT22;35149;51.196;6.204;2023-06-01T11:59:45;21.80;46.00
49132;DHT22;35149;51.196;6.204;2023-06-01T12:02:20;21.80;46.20
49132;DHT22;35149;51.196;6.204;2023-06-01T12:05:05;21.90;45.30
49132;DHT22;35149;51.196;6.204;2023-06-01T12:07:47;22.00;45.70
49132;DHT22;35149;51.196;6.204;2023-06-01T12:10:16;22.00;45.50
49132;DHT22;35149;51.196;6.204;2023-06-01T12:12:43;22.10;45.70
49132;DHT22;35149;51.196;6.204;2023-06-01T12:15:11;22.10;45.70
49132;DHT22;35149;51.196;6.204;2023-06-01T12:17:55;22.20;46.60
49132;DHT22;35149;51.196;6.204;2023-06-01T12:20:33;22.30;45.50
49132;DHT22;35149;51.196;6.204;2023-06-01T12:23:12;22.40;45.90
49132;DHT22;35149;51.196;6.204;2023-06-01T12:28:16;22.70;45.20
49132;DHT22;35149;51.196;6.204;2023-06-01T12:30:46;22.80;45.20
49132;DHT22;35149;51.196;6.204;2023-06-01T12:33:32;22.80;45.20
49132;DHT22;35149;51.196;6.204;2023-06-01T12:36:04;23.00;44.60
49132;DHT22;35149;51.196;6.204;2023-06-01T12:38:50;23.10;44.20
49132;DHT22;35149;51.196;6.204;2023-06-01T12:41:18;23.10;43.50
49132;DHT22;35149;51.196;6.204;2023-06-01T12:43:45;23.30;44.60
49132;DHT22;35149;51.196;6.204;2023-06-01T12:46:20;23.30;43.80
49132;DHT22;35149;51.196;6.204;2023-06-01T12:48:47;23.40;43.00
49132;DHT22;35149;51.196;6.204;2023-06-01T12:51:14;23.50;43.00
49132;DHT22;35149;51.196;6.204;2023-06-01T12:53:41;23.60;43.20
49132;DHT22;35149;51.196;6.204;2023-06-01T12:56:11;23.70;43.80
49132;DHT22;35149;51.196;6.204;2023-06-01T12:58:38;23.70;43.50
49132;DHT22;35149;51.196;6.204;2023-06-01T13:01:05;23.90;43.10
49132;DHT22;35149;51.196;6.204;2023-06-01T13:03:32;24.00;43.00
49132;DHT22;35149;51.196;6.204;2023-06-01T13:06:00;24.10;42.60
49132;DHT22;35149;51.196;6.204;2023-06-01T13:08:27;24.20;42.60
49132;DHT22;35149;51.196;6.204;2023-06-01T13:10:54;24.30;42.50
49132;DHT22;35149;51.196;6.204;2023-06-01T13:13:20;24.40;41.70
49132;DHT22;35149;51.196;6.204;2023-06-01T13:15:47;24.40;41.50
49132;DHT22;35149;51.196;6.204;2023-06-01T13:18:14;24.50;41.50
49132;DHT22;35149;51.196;6.204;2023-06-01T13:20:42;24.70;42.30
49132;DHT22;35149;51.196;6.204;2023-06-01T13:23:09;24.80;41.70
49132;DHT22;35149;51.196;6.204;2023-06-01T13:25:39;24.90;41.20
49132;DHT22;35149;51.196;6.204;2023-06-01T13:28:06;25.10;41.30
49132;DHT22;35149;51.196;6.204;2023-06-01T13:30:35;25.50;41.30
49132;DHT22;35149;51.196;6.204;2023-06-01T13:33:02;26.00;41.90
49132;DHT22;35149;51.196;6.204;2023-06-01T13:35:29;26.70;41.70
49132;DHT22;35149;51.196;6.204;2023-06-01T13:37:55;27.70;40.90
49132;DHT22;35149;51.196;6.204;2023-06-01T13:40:22;28.60;41.20
49132;DHT22;35149;51.196;6.204;2023-06-01T13:42:51;29.60;39.40
49132;DHT22;35149;51.196;6.204;2023-06-01T13:45:22;30.70;39.00
49132;DHT22;35149;51.196;6.204;2023-06-01T13:47:49;31.70;37.40
49132;DHT22;35149;51.196;6.204;2023-06-01T13:50:19;32.70;36.70
49132;DHT22;35149;51.196;6.204;2023-06-01T13:52:46;33.60;35.10
49132;DHT22;35149;51.196;6.204;2023-06-01T13:55:12;34.50;34.10
49132;DHT22;35149;51.196;6.204;2023-06-01T13:57:40;35.30;33.30
49132;DHT22;35149;51.196;6.204;2023-06-01T14:00:08;36.20;32.60
49132;DHT22;35149;51.196;6.204;2023-06-01T14:02:35;36.90;30.40
49132;DHT22;35149;51.196;6.204;2023-06-01T14:05:02;37.60;29.90
49132;DHT22;35149;51.196;6.204;2023-06-01T14:07:37;38.10;29.40
49132;DHT22;35149;51.196;6.204;2023-06-01T14:10:05;38.70;29.40
49132;DHT22;35149;51.196;6.204;2023-06-01T14:12:32;39.30;28.80
49132;DHT22;35149;51.196;6.204;2023-06-01T14:14:59;39.70;27.60
49132;DHT22;35149;51.196;6.204;2023-06-01T14:17:26;40.10;27.30
49132;DHT22;35149;51.196;6.204;2023-06-01T14:19:52;40.50;26.90
49132;DHT22;35149;51.196;6.204;2023-06-01T14:22:22;40.60;26.40
49132;DHT22;35149;51.196;6.204;2023-06-01T14:24:49;40.80;25.80
49132;DHT22;35149;51.196;6.204;2023-06-01T14:27:16;40.80;25.70
49132;DHT22;35149;51.196;6.204;2023-06-01T14:29:44;40.80;26.20
49132;DHT22;35149;51.196;6.204;2023-06-01T14:32:10;40.90;26.10
49132;DHT22;35149;51.196;6.204;2023-06-01T14:34:37;41.00;25.80
49132;DHT22;35149;51.196;6.204;2023-06-01T14:37:04;41.10;25.90
49132;DHT22;35149;51.196;6.204;2023-06-01T14:39:33;41.20;25.70
49132;DHT22;35149;51.196;6.204;2023-06-01T14:42:00;41.50;25.40
49132;DHT22;35149;51.196;6.204;2023-06-01T14:44:27;41.80;25.10
49132;DHT22;35149;51.196;6.204;2023-06-01T14:46:53;42.00;24.90
49132;DHT22;35149;51.196;6.204;2023-06-01T14:49:20;42.20;24.60
49132;DHT22;35149;51.196;6.204;2023-06-01T14:51:49;42.20;24.10
49132;DHT22;35149;51.196;6.204;2023-06-01T14:54:16;42.30;23.70
49132;DHT22;35149;51.196;6.204;2023-06-01T14:56:56;42.30;23.60
49132;DHT22;35149;51.196;6.204;2023-06-01T14:59:22;42.20;23.50
49132;DHT22;35149;51.196;6.204;2023-06-01T15:01:50;42.00;23.30
49132;DHT22;35149;51.196;6.204;2023-06-01T15:04:17;41.80;23.40
49132;DHT22;35149;51.196;6.204;2023-06-01T15:06:43;41.80;24.10
49132;DHT22;35149;51.196;6.204;2023-06-01T15:09:10;41.80;23.80
49132;DHT22;35149;51.196;6.204;2023-06-01T15:11:37;41.70;23.90
49132;DHT22;35149;51.196;6.204;2023-06-01T15:14:03;41.80;23.90
49132;DHT22;35149;51.196;6.204;2023-06-01T15:16:30;41.80;23.70
49132;DHT22;35149;51.196;6.204;2023-06-01T15:18:57;42.10;24.10
49132;DHT22;35149;51.196;6.204;2023-06-01T15:21:26;42.20;23.20
49132;DHT22;35149;51.196;6.204;2023-06-01T15:23:53;42.50;23.50
49132;DHT22;35149;51.196;6.204;2023-06-01T15:26:21;42.70;23.00
49132;DHT22;35149;51.196;6.204;2023-06-01T15:28:48;42.80;22.70
49132;DHT22;35149;51.196;6.204;2023-06-01T15:31:16;42.90;23.10
49132;DHT22;35149;51.196;6.204;2023-06-01T15:33:42;43.00;23.10
49132;DHT22;35149;51.196;6.204;2023-06-01T15:36:09;43.20;23.00
49132;DHT22;35149;51.196;6.204;2023-06-01T15:38:36;43.30;22.90
49132;DHT22;35149;51.196;6.204;2023-06-01T15:41:03;43.50;22.90
49132;DHT22;35149;51.196;6.204;2023-06-01T15:43:30;43.70;23.00
49132;DHT22;35149;51.196;6.204;2023-06-01T15:45:56;43.90;22.80
49132;DHT22;35149;51.196;6.204;2023-06-01T15:48:23;43.90;22.80
49132;DHT22;35149;51.196;6.204;2023-06-01T15:50:50;44.00;22.80
49132;DHT22;35149;51.196;6.204;2023-06-01T15:53:18;44.20;22.80
49132;DHT22;35149;51.196;6.204;2023-06-01T15:55:45;44.30;22.70
49132;DHT22;35149;51.196;6.204;2023-06-01T15:58:14;44.40;22.60
49132;DHT22;35149;51.196;6.204;2023-06-01T16:00:41;44.60;22.40
49132;DHT22;35149;51.196;6.204;2023-06-01T16:03:08;44.70;22.60